createdAt,value
2023-01-25T00:00:53.646Z,-0.89
2023-01-25T00:03:26.485Z,-0.97
2023-01-25T00:06:01.690Z,-0.88
2023-01-25T00:08:29.482Z,-0.97
2023-01-25T00:10:58.513Z,-1.08
2023-01-25T00:13:27.020Z,-1.13
2023-01-25T00:16:01.294Z,-1.04
2023-01-25T00:18:28.519Z,-1.20
2023-01-25T00:20:56.092Z,-1.09
2023-01-25T00:23:23.324Z,-1.15
2023-01-25T00:25:57.885Z,-1.14
2023-01-25T00:28:25.785Z,-1.18
2023-01-25T00:30:53.191Z,-1.11
2023-01-25T00:33:30.994Z,-1.03
2023-01-25T00:35:58.607Z,-1.21
2023-01-25T00:38:34.052Z,-1.17
2023-01-25T00:41:01.590Z,-1.31
2023-01-25T00:43:29.157Z,-1.34
2023-01-25T00:46:03.173Z,-1.25
2023-01-25T00:48:31.244Z,-1.35
2023-01-25T00:51:03.520Z,-1.34
2023-01-25T00:53:30.936Z,-1.26
2023-01-25T00:55:58.668Z,-1.19
2023-01-25T00:58:29.676Z,-1.17
2023-01-25T01:01:01.191Z,-1.12
2023-01-25T01:03:28.522Z,-1.17
2023-01-25T01:06:04.353Z,-1.03
2023-01-25T01:08:34.085Z,-1.05
2023-01-25T01:11:02.879Z,-0.95
2023-01-25T01:13:30.459Z,-1.07
2023-01-25T01:16:02.979Z,-0.97
2023-01-25T01:18:35.069Z,-0.96
2023-01-25T01:21:03.304Z,-1.05
2023-01-25T01:23:31.322Z,-1.07
2023-01-25T01:26:04.979Z,-1.05
2023-01-25T01:28:34.995Z,-0.99
2023-01-25T01:31:04.476Z,-0.97
2023-01-25T01:33:36.262Z,-0.96
2023-01-25T01:36:12.139Z,-0.84
2023-01-25T01:38:39.585Z,-0.97
2023-01-25T01:41:08.273Z,-0.89
2023-01-25T01:43:36.057Z,-0.96
2023-01-25T01:46:20.279Z,-0.83
2023-01-25T01:48:54.011Z,-0.76
2023-01-25T01:51:42.365Z,-0.73
2023-01-25T01:54:16.437Z,-0.87
2023-01-25T01:57:00.573Z,-0.71
2023-01-25T01:59:34.396Z,-0.71
2023-01-25T02:02:02.669Z,-0.77
2023-01-25T02:04:30.634Z,-0.84
2023-01-25T02:07:23.112Z,-0.79
2023-01-25T02:09:51.623Z,-0.92
2023-01-25T02:12:22.730Z,-0.85
2023-01-25T02:14:53.856Z,-0.83
2023-01-25T02:17:34.087Z,-0.75
2023-01-25T02:20:09.809Z,-0.78
2023-01-25T02:23:03.571Z,-0.65
2023-01-25T02:25:31.128Z,-0.66
2023-01-25T02:28:14.792Z,-0.63
2023-01-25T02:30:43.579Z,-0.70
2023-01-25T02:33:11.428Z,-0.92
2023-01-25T02:35:42.698Z,-0.89
2023-01-25T02:38:14.504Z,-1.04
2023-01-25T02:40:52.878Z,-0.88
2023-01-25T02:43:20.512Z,-0.93
2023-01-25T02:45:52.668Z,-0.93
2023-01-25T02:48:21.469Z,-1.00
2023-01-25T02:50:48.670Z,-0.92
2023-01-25T02:53:16.253Z,-0.91
2023-01-25T02:55:43.484Z,-0.97
2023-01-25T02:58:11.048Z,-1.08
2023-01-25T03:00:38.294Z,-1.06
2023-01-25T03:03:05.938Z,-0.99
2023-01-25T03:05:33.883Z,-1.04
2023-01-25T03:08:01.602Z,-1.12
2023-01-25T03:10:28.858Z,-1.17
2023-01-25T03:12:56.717Z,-1.26
2023-01-25T03:15:23.844Z,-1.24
2023-01-25T03:17:51.642Z,-1.42
2023-01-25T03:20:19.168Z,-1.39
2023-01-25T03:22:47.487Z,-1.42
2023-01-25T03:25:15.353Z,-1.54
2023-01-25T03:27:54.384Z,-1.35
2023-01-25T03:30:22.243Z,-1.38
2023-01-25T03:32:50.870Z,-1.37
2023-01-25T03:35:20.069Z,-1.40
2023-01-25T03:37:48.293Z,-1.35
2023-01-25T03:40:16.767Z,-1.29
2023-01-25T03:42:52.420Z,-1.29
2023-01-25T03:45:19.704Z,-1.33
2023-01-25T03:47:47.239Z,-1.28
2023-01-25T03:50:15.270Z,-1.20
2023-01-25T03:52:46.607Z,-1.28
2023-01-25T03:55:14.394Z,-1.16
2023-01-25T03:57:43.648Z,-1.14
2023-01-25T04:00:13.035Z,-1.10
2023-01-25T04:02:45.402Z,-1.05
2023-01-25T04:05:16.998Z,-1.07
2023-01-25T04:07:44.806Z,-1.11
2023-01-25T04:10:13.109Z,-1.05
2023-01-25T04:12:44.674Z,-1.05
2023-01-25T04:15:12.062Z,-1.06
2023-01-25T04:17:40.369Z,-1.14
2023-01-25T04:20:33.553Z,-1.10
2023-01-25T04:23:01.525Z,-1.01
2023-01-25T04:25:35.882Z,-0.99
2023-01-25T04:28:03.995Z,-1.02
2023-01-25T04:30:32.410Z,-0.98
2023-01-25T04:33:05.493Z,-0.91
2023-01-25T04:35:32.921Z,-0.91
2023-01-25T04:38:03.126Z,-0.98
2023-01-25T04:40:40.259Z,-0.88
2023-01-25T04:43:07.826Z,-0.92
2023-01-25T04:45:36.609Z,-0.87
2023-01-25T04:48:10.876Z,-0.83
2023-01-25T04:50:44.284Z,-0.91
2023-01-25T04:53:13.259Z,-0.84
2023-01-25T04:55:46.402Z,-0.80
2023-01-25T04:58:15.617Z,-0.80
2023-01-25T05:00:43.696Z,-0.87
2023-01-25T05:03:12.414Z,-0.98
2023-01-25T05:05:39.633Z,-0.93
2023-01-25T05:08:11.804Z,-1.00
2023-01-25T05:10:39.005Z,-1.05
2023-01-25T05:13:23.931Z,-1.25
2023-01-25T05:16:00.344Z,-1.11
2023-01-25T05:18:33.216Z,-1.18
2023-01-25T05:21:26.446Z,-1.26
2023-01-25T05:24:00.367Z,-1.31
2023-01-25T05:26:47.869Z,-1.28
2023-01-25T05:29:15.408Z,-1.26
2023-01-25T05:31:54.286Z,-1.27
2023-01-25T05:34:22.588Z,-1.32
2023-01-25T05:36:50.249Z,-1.30
2023-01-25T05:39:18.077Z,-1.37
2023-01-25T05:41:47.562Z,-1.38
2023-01-25T05:44:15.772Z,-1.39
2023-01-25T05:46:48.422Z,-1.37
2023-01-25T05:49:18.557Z,-1.33
2023-01-25T05:51:47.099Z,-1.34
2023-01-25T05:54:17.530Z,-1.39
2023-01-25T05:56:51.415Z,-1.48
2023-01-25T05:59:19.594Z,-1.36
2023-01-25T06:01:47.605Z,-1.27
2023-01-25T06:04:15.972Z,-1.22
2023-01-25T06:06:43.265Z,-1.25
2023-01-25T06:09:12.759Z,-1.14
2023-01-25T06:11:45.112Z,-1.14
2023-01-25T06:14:12.879Z,-1.23
2023-01-25T06:16:41.019Z,-1.26
2023-01-25T06:19:28.634Z,-1.20
2023-01-25T06:22:22.546Z,-1.16
2023-01-25T06:24:50.182Z,-1.16
2023-01-25T06:27:17.379Z,-1.20
2023-01-25T06:29:44.849Z,-1.18
2023-01-25T06:32:12.183Z,-1.15
2023-01-25T06:34:39.695Z,-1.07
2023-01-25T06:37:10.497Z,-0.97
2023-01-25T06:39:38.019Z,-1.00
2023-01-25T06:42:06.079Z,-1.07
2023-01-25T06:44:35.089Z,-1.07
2023-01-25T06:47:02.214Z,-1.04
2023-01-25T06:49:29.690Z,-1.10
2023-01-25T06:51:56.901Z,-1.03
2023-01-25T06:54:24.476Z,-1.03
2023-01-25T06:56:51.628Z,-0.96
2023-01-25T06:59:19.145Z,-1.04
2023-01-25T07:01:46.555Z,-1.09
2023-01-25T07:04:14.215Z,-1.02
2023-01-25T07:06:41.571Z,-1.04
2023-01-25T07:09:11.659Z,-0.96
2023-01-25T07:11:39.126Z,-0.97
2023-01-25T07:14:07.127Z,-0.99
2023-01-25T07:16:37.331Z,-0.93
2023-01-25T07:19:06.739Z,-0.88
2023-01-25T07:21:34.288Z,-0.97
2023-01-25T07:24:03.742Z,-0.92
2023-01-25T07:26:32.855Z,-1.00
2023-01-25T07:29:00.649Z,-0.98
2023-01-25T07:31:28.902Z,-1.01
2023-01-25T07:33:58.040Z,-1.02
2023-01-25T07:36:26.344Z,-0.93
2023-01-25T07:38:58.357Z,-0.95
2023-01-25T07:41:26.144Z,-1.02
2023-01-25T07:43:53.884Z,-1.06
2023-01-25T07:46:30.888Z,-1.16
2023-01-25T07:49:01.105Z,-1.09
2023-01-25T07:51:30.306Z,-1.13
2023-01-25T07:53:59.858Z,-1.06
2023-01-25T07:56:40.865Z,-0.99
2023-01-25T07:59:12.700Z,-0.86
2023-01-25T08:01:40.334Z,-0.89
2023-01-25T08:04:08.025Z,-0.87
2023-01-25T08:06:39.490Z,-0.88
2023-01-25T08:09:21.508Z,-0.79
2023-01-25T08:11:49.598Z,-0.82
2023-01-25T08:14:17.191Z,-0.88
2023-01-25T08:16:44.661Z,-0.97
2023-01-25T08:19:13.523Z,-0.79
2023-01-25T08:21:42.023Z,-0.76
2023-01-25T08:24:09.859Z,-0.73
2023-01-25T08:26:37.841Z,-0.77
2023-01-25T08:29:06.628Z,-0.69
2023-01-25T08:31:35.588Z,-0.68
2023-01-25T08:34:04.079Z,-0.75
2023-01-25T08:36:34.370Z,-0.69
2023-01-25T08:39:04.902Z,-0.50
2023-01-25T08:41:34.468Z,-0.36
2023-01-25T08:44:02.083Z,-0.52
2023-01-25T08:46:31.952Z,-0.43
2023-01-25T08:49:01.525Z,-0.38
2023-01-25T08:51:29.269Z,-0.43
2023-01-25T08:53:56.768Z,-0.35
2023-01-25T08:56:23.972Z,-0.30
2023-01-25T08:58:51.672Z,-0.11
2023-01-25T09:01:20.435Z,0.04
2023-01-25T09:03:50.734Z,-0.01
2023-01-25T09:06:19.925Z,0.08
2023-01-25T09:08:47.945Z,0.16
2023-01-25T09:11:20.579Z,0.23
2023-01-25T09:13:49.224Z,0.16
2023-01-25T09:16:20.807Z,0.30
2023-01-25T09:18:50.556Z,0.37
2023-01-25T09:21:19.263Z,0.39
2023-01-25T09:24:04.982Z,0.52
2023-01-25T09:26:43.042Z,0.60
2023-01-25T09:29:13.771Z,0.68
2023-01-25T09:31:44.168Z,0.72
2023-01-25T09:34:32.520Z,0.78
2023-01-25T09:36:59.834Z,0.68
2023-01-25T09:39:27.513Z,0.64
2023-01-25T09:42:23.369Z,0.79
2023-01-25T09:45:15.434Z,0.76
2023-01-25T09:47:48.681Z,0.70
2023-01-25T09:50:25.324Z,0.44
2023-01-25T09:53:14.937Z,0.53
2023-01-25T09:55:42.958Z,0.58
2023-01-25T09:58:26.300Z,0.61
2023-01-25T10:01:12.103Z,0.60
2023-01-25T10:03:52.638Z,0.57
2023-01-25T10:06:24.034Z,0.55
2023-01-25T10:09:05.503Z,0.62
2023-01-25T10:11:33.868Z,0.75
2023-01-25T10:14:01.150Z,0.74
2023-01-25T10:16:37.183Z,0.89
2023-01-25T10:19:17.834Z,1.12
2023-01-25T10:21:55.236Z,1.19
2023-01-25T10:24:25.535Z,1.23
2023-01-25T10:26:57.384Z,1.30
2023-01-25T10:29:31.865Z,1.45
2023-01-25T10:32:09.204Z,1.31
2023-01-25T10:34:56.209Z,1.07
2023-01-25T10:37:41.025Z,0.86
2023-01-25T10:40:12.522Z,0.78
2023-01-25T10:43:03.317Z,0.84
2023-01-25T10:45:50.480Z,0.79
2023-01-25T10:48:23.249Z,0.89
2023-01-25T10:50:56.507Z,0.99
2023-01-25T10:53:32.097Z,1.16
2023-01-25T10:56:11.820Z,1.25
2023-01-25T10:58:42.342Z,1.18
2023-01-25T11:01:14.119Z,1.35
2023-01-25T11:03:45.046Z,1.39
2023-01-25T11:06:32.947Z,1.46
2023-01-25T11:09:01.597Z,1.38
2023-01-25T11:11:40.608Z,1.40
2023-01-25T11:14:18.576Z,1.32
2023-01-25T11:16:50.704Z,1.28
2023-01-25T11:19:40.779Z,1.37
2023-01-25T11:22:21.790Z,1.47
2023-01-25T11:24:49.644Z,1.36
2023-01-25T11:27:24.732Z,1.45
2023-01-25T11:30:16.286Z,1.55
2023-01-25T11:32:43.654Z,1.47
2023-01-25T11:35:15.968Z,1.66
2023-01-25T11:38:30.535Z,1.71
2023-01-25T11:41:14.847Z,1.72
2023-01-25T11:44:33.963Z,1.66
2023-01-25T11:47:23.523Z,1.37
2023-01-25T11:50:16.591Z,1.08
2023-01-25T11:53:18.685Z,1.12
2023-01-25T11:55:55.976Z,1.17
2023-01-25T11:58:39.831Z,1.13
2023-01-25T12:01:34.916Z,1.31
2023-01-25T12:04:25.463Z,1.16
2023-01-25T12:07:05.182Z,1.01
2023-01-25T12:10:00.037Z,0.87
2023-01-25T12:12:52.760Z,0.97
2023-01-25T12:15:52.546Z,0.98
2023-01-25T12:18:34.792Z,0.91
2023-01-25T12:21:30.753Z,0.88
2023-01-25T12:24:19.110Z,0.89
2023-01-25T12:27:04.039Z,0.98
2023-01-25T12:29:36.724Z,1.11
2023-01-25T12:32:10.992Z,1.19
2023-01-25T12:34:41.864Z,1.18
2023-01-25T12:37:24.551Z,1.20
2023-01-25T12:40:01.752Z,1.17
2023-01-25T12:42:46.375Z,1.16
2023-01-25T12:45:19.604Z,1.03
2023-01-25T12:48:31.653Z,0.83
2023-01-25T12:51:00.123Z,0.69
2023-01-25T12:53:37.522Z,0.73
2023-01-25T12:56:07.747Z,0.78
2023-01-25T12:58:46.709Z,0.65
2023-01-25T13:01:45.956Z,0.54
2023-01-25T13:04:53.029Z,0.72
2023-01-25T13:07:32.559Z,0.63
2023-01-25T13:10:13.000Z,0.49
2023-01-25T13:12:54.477Z,0.46
2023-01-25T13:15:44.120Z,0.51
2023-01-25T13:18:29.622Z,0.50
2023-01-25T13:20:59.125Z,0.53
2023-01-25T13:23:44.113Z,0.58
2023-01-25T13:26:24.192Z,0.59
2023-01-25T13:28:53.735Z,0.50
2023-01-25T13:31:56.496Z,0.49
2023-01-25T13:34:40.492Z,0.43
2023-01-25T13:37:30.257Z,0.43
2023-01-25T13:40:37.958Z,0.45
2023-01-25T13:43:17.500Z,0.45
2023-01-25T13:45:47.269Z,0.43
2023-01-25T13:48:21.678Z,0.42
2023-01-25T13:51:06.803Z,0.25
2023-01-25T13:53:35.542Z,0.18
2023-01-25T13:56:03.709Z,0.17
2023-01-25T13:58:33.988Z,0.17
2023-01-25T14:01:27.292Z,0.09
2023-01-25T14:04:02.701Z,0.02
2023-01-25T14:06:38.798Z,0.13
2023-01-25T14:09:22.733Z,0.07
2023-01-25T14:12:00.580Z,0.08
2023-01-25T14:14:30.857Z,0.06
2023-01-25T14:17:23.307Z,0.08
2023-01-25T14:19:58.714Z,-0.04
2023-01-25T14:22:32.761Z,-0.13
2023-01-25T14:25:23.690Z,-0.24
2023-01-25T14:28:04.098Z,-0.30
2023-01-25T14:30:35.703Z,-0.45
2023-01-25T14:33:17.017Z,-0.48
2023-01-25T14:35:57.434Z,-0.44
2023-01-25T14:38:39.164Z,-0.35
2023-01-25T14:41:30.435Z,-0.39
2023-01-25T14:44:13.139Z,-0.46
2023-01-25T14:46:41.812Z,-0.46
2023-01-25T14:49:12.072Z,-0.47
2023-01-25T14:51:47.803Z,-0.41
2023-01-25T14:54:22.541Z,-0.48
2023-01-25T14:56:58.665Z,-0.56
2023-01-25T14:59:33.175Z,-0.67
2023-01-25T15:02:26.306Z,-0.64
2023-01-25T15:05:10.977Z,-0.60
2023-01-25T15:07:47.141Z,-0.67
2023-01-25T15:10:18.479Z,-0.76
2023-01-25T15:13:15.734Z,-0.87
2023-01-25T15:15:54.571Z,-0.75
2023-01-25T15:18:49.643Z,-0.76
2023-01-25T15:21:26.116Z,-0.80
2023-01-25T15:24:00.560Z,-0.83
2023-01-25T15:26:30.813Z,-0.78
2023-01-25T15:29:02.355Z,-0.89
2023-01-25T15:31:36.355Z,-1.02
2023-01-25T15:34:05.109Z,-1.04
2023-01-25T15:36:33.593Z,-1.07
2023-01-25T15:39:01.993Z,-1.04
2023-01-25T15:41:32.370Z,-1.07
2023-01-25T15:44:02.365Z,-0.99
2023-01-25T15:46:33.765Z,-0.79
2023-01-25T15:49:04.634Z,-1.00
2023-01-25T15:51:35.526Z,-1.08
2023-01-25T15:54:04.219Z,-1.15
2023-01-25T15:56:34.112Z,-1.07
2023-01-25T15:59:07.187Z,-1.03
2023-01-25T16:01:34.898Z,-1.13
2023-01-25T16:04:03.751Z,-1.15
2023-01-25T16:06:42.145Z,-1.13
2023-01-25T16:09:29.644Z,-1.10
2023-01-25T16:12:00.403Z,-1.17
2023-01-25T16:14:31.708Z,-1.15
2023-01-25T16:17:07.877Z,-1.16
2023-01-25T16:19:37.575Z,-1.21
2023-01-25T16:22:05.110Z,-1.30
2023-01-25T16:24:32.977Z,-1.43
2023-01-25T16:27:03.742Z,-1.30
2023-01-25T16:29:34.471Z,-1.42
2023-01-25T16:32:01.942Z,-1.43
2023-01-25T16:34:29.798Z,-1.50
2023-01-25T16:36:59.952Z,-1.37
2023-01-25T16:39:28.582Z,-1.45
2023-01-25T16:41:57.464Z,-1.36
2023-01-25T16:44:25.600Z,-1.35
2023-01-25T16:46:53.038Z,-1.27
2023-01-25T16:49:23.353Z,-1.17
2023-01-25T16:51:50.984Z,-1.32
2023-01-25T16:54:20.161Z,-1.31
2023-01-25T16:56:48.568Z,-1.36
2023-01-25T16:59:17.454Z,-1.46
2023-01-25T17:01:45.526Z,-1.39
2023-01-25T17:04:13.240Z,-1.34
2023-01-25T17:06:43.779Z,-1.34
2023-01-25T17:09:23.084Z,-1.33
2023-01-25T17:11:51.368Z,-1.36
2023-01-25T17:14:20.408Z,-1.33
2023-01-25T17:16:50.549Z,-1.32
2023-01-25T17:19:18.938Z,-1.36
2023-01-25T17:21:46.813Z,-1.30
2023-01-25T17:24:17.169Z,-1.37
2023-01-25T17:26:45.067Z,-1.56
2023-01-25T17:29:14.003Z,-1.43
2023-01-25T17:31:42.505Z,-1.39
2023-01-25T17:34:16.389Z,-1.45
2023-01-25T17:36:44.864Z,-1.48
2023-01-25T17:39:17.015Z,-1.39
2023-01-25T17:41:46.038Z,-1.40
2023-01-25T17:44:17.632Z,-1.41
2023-01-25T17:46:45.118Z,-1.46
2023-01-25T17:49:17.112Z,-1.35
2023-01-25T17:51:45.033Z,-1.33
2023-01-25T17:54:13.469Z,-1.42
2023-01-25T17:56:41.069Z,-1.49
2023-01-25T17:59:10.049Z,-1.42
2023-01-25T18:01:38.650Z,-1.33
2023-01-25T18:04:08.529Z,-1.30
2023-01-25T18:06:37.053Z,-1.41
2023-01-25T18:09:06.763Z,-1.41
2023-01-25T18:11:36.026Z,-1.41
2023-01-25T18:14:09.103Z,-1.43
2023-01-25T18:16:39.346Z,-1.48
2023-01-25T18:19:08.039Z,-1.56
2023-01-25T18:21:35.862Z,-1.73
2023-01-25T18:24:23.305Z,-1.68
2023-01-25T18:26:51.686Z,-1.65
2023-01-25T18:29:35.614Z,-1.70
2023-01-25T18:32:03.068Z,-1.73
2023-01-25T18:34:30.952Z,-1.69
2023-01-25T18:36:59.472Z,-1.56
2023-01-25T18:39:28.368Z,-1.58
2023-01-25T18:41:55.720Z,-1.54
2023-01-25T18:44:23.404Z,-1.65
2023-01-25T18:46:50.871Z,-1.64
2023-01-25T18:49:18.458Z,-1.65
2023-01-25T18:52:04.905Z,-1.85
2023-01-25T18:54:33.434Z,-1.76
2023-01-25T18:57:00.776Z,-1.84
2023-01-25T18:59:28.500Z,-1.97
2023-01-25T19:01:55.888Z,-1.91
2023-01-25T19:04:23.446Z,-1.94
2023-01-25T19:06:56.844Z,-1.98
2023-01-25T19:09:25.875Z,-1.97
2023-01-25T19:11:53.987Z,-2.08
2023-01-25T19:14:23.129Z,-2.07
2023-01-25T19:16:50.959Z,-2.08
2023-01-25T19:19:21.034Z,-2.22
2023-01-25T19:21:48.399Z,-2.13
2023-01-25T19:24:19.609Z,-2.06
2023-01-25T19:26:47.628Z,-2.07
2023-01-25T19:29:16.002Z,-2.05
2023-01-25T19:31:43.364Z,-2.10
2023-01-25T19:34:11.144Z,-2.05
2023-01-25T19:36:47.563Z,-1.96
2023-01-25T19:39:15.752Z,-2.01
2023-01-25T19:41:43.085Z,-2.00
2023-01-25T19:44:12.944Z,-1.92
2023-01-25T19:46:40.788Z,-2.11
2023-01-25T19:49:10.918Z,-1.88
2023-01-25T19:51:41.574Z,-1.79
2023-01-25T19:54:16.992Z,-1.89
2023-01-25T19:56:46.891Z,-1.88
2023-01-25T19:59:20.516Z,-1.80
2023-01-25T20:01:48.211Z,-1.89
2023-01-25T20:04:20.044Z,-1.83
2023-01-25T20:06:48.209Z,-1.76
2023-01-25T20:09:17.676Z,-1.75
2023-01-25T20:11:46.416Z,-1.73
2023-01-25T20:14:15.039Z,-1.71
2023-01-25T20:16:42.863Z,-1.78
2023-01-25T20:19:14.060Z,-1.86
2023-01-25T20:21:41.641Z,-1.96
2023-01-25T20:24:10.642Z,-1.99
2023-01-25T20:26:40.499Z,-1.90
2023-01-25T20:29:09.584Z,-1.97
2023-01-25T20:31:42.289Z,-1.93
2023-01-25T20:34:21.812Z,-2.14
2023-01-25T20:36:51.284Z,-2.19
2023-01-25T20:39:22.084Z,-2.19
2023-01-25T20:41:54.042Z,-2.29
2023-01-25T20:44:23.047Z,-2.29
2023-01-25T20:46:52.892Z,-2.28
2023-01-25T20:49:21.291Z,-2.26
2023-01-25T20:51:49.220Z,-2.30
2023-01-25T20:54:18.587Z,-2.33
2023-01-25T20:56:48.435Z,-2.35
2023-01-25T20:59:19.492Z,-2.37
2023-01-25T21:01:47.180Z,-2.38
2023-01-25T21:04:15.406Z,-2.47
2023-01-25T21:06:43.105Z,-2.47
2023-01-25T21:09:12.220Z,-2.41
2023-01-25T21:11:39.715Z,-2.47
2023-01-25T21:14:07.666Z,-2.47
2023-01-25T21:16:36.056Z,-2.48
2023-01-25T21:19:06.715Z,-2.42
2023-01-25T21:21:35.125Z,-2.45
2023-01-25T21:24:05.528Z,-2.39
2023-01-25T21:26:34.657Z,-2.30
2023-01-25T21:29:03.778Z,-2.30
2023-01-25T21:31:37.732Z,-2.19
2023-01-25T21:34:06.657Z,-2.27
2023-01-25T21:36:34.223Z,-2.25
2023-01-25T21:39:02.670Z,-2.38
2023-01-25T21:41:33.759Z,-2.28
2023-01-25T21:44:21.033Z,-2.29
2023-01-25T21:47:16.332Z,-2.35
2023-01-25T21:49:54.917Z,-2.38
2023-01-25T21:52:22.252Z,-2.43
2023-01-25T21:54:49.982Z,-2.36
2023-01-25T21:57:17.227Z,-2.41
2023-01-25T21:59:44.892Z,-2.39
2023-01-25T22:02:16.715Z,-2.34
2023-01-25T22:04:44.381Z,-2.51
2023-01-25T22:07:12.047Z,-2.50
2023-01-25T22:09:39.624Z,-2.56
2023-01-25T22:12:06.952Z,-2.53
2023-01-25T22:14:35.158Z,-2.55
2023-01-25T22:17:03.328Z,-2.72
2023-01-25T22:19:30.920Z,-2.85
2023-01-25T22:21:58.032Z,-2.78
2023-01-25T22:24:25.617Z,-2.88
2023-01-25T22:27:04.978Z,-2.76
2023-01-25T22:29:35.545Z,-2.83
2023-01-25T22:32:02.797Z,-2.95
2023-01-25T22:34:30.365Z,-3.04
2023-01-25T22:36:57.598Z,-3.12
2023-01-25T22:39:25.131Z,-3.11
2023-01-25T22:41:52.319Z,-3.08
2023-01-25T22:44:19.982Z,-3.00
2023-01-25T22:46:48.420Z,-3.08
2023-01-25T22:49:15.932Z,-3.14
2023-01-25T22:51:43.060Z,-3.16
2023-01-25T22:54:10.564Z,-3.10
2023-01-25T22:56:37.845Z,-3.08
2023-01-25T22:59:06.803Z,-3.09
2023-01-25T23:01:35.314Z,-3.13
2023-01-25T23:04:03.065Z,-3.12
2023-01-25T23:06:33.338Z,-3.02
2023-01-25T23:09:03.578Z,-2.96
2023-01-25T23:11:35.832Z,-3.07
2023-01-25T23:14:23.809Z,-2.95
2023-01-25T23:16:51.008Z,-2.92
2023-01-25T23:19:18.757Z,-2.87
2023-01-25T23:21:46.073Z,-2.83
2023-01-25T23:24:13.639Z,-2.86
2023-01-25T23:26:46.780Z,-2.94
2023-01-25T23:29:14.624Z,-2.89
2023-01-25T23:31:42.428Z,-2.81
2023-01-25T23:34:11.701Z,-2.77
2023-01-25T23:36:39.818Z,-2.78
2023-01-25T23:39:07.438Z,-2.75
2023-01-25T23:41:34.601Z,-2.74
2023-01-25T23:44:02.429Z,-2.72
2023-01-25T23:46:30.905Z,-2.73
2023-01-25T23:48:58.450Z,-2.78
2023-01-25T23:51:25.592Z,-2.79
2023-01-25T23:53:53.620Z,-2.84
2023-01-25T23:56:22.397Z,-2.78
2023-01-25T23:58:50.549Z,-2.81
